createdAt,value
2017-12-22T17:27:40.714Z,39.38
2017-12-22T17:28:39.725Z,39.38
2017-12-22T17:30:33.152Z,39.38
2017-12-22T17:31:32.890Z,39.38
2017-12-22T17:33:26.836Z,33.75
2017-12-22T17:34:26.004Z,33.75
2017-12-22T17:36:19.170Z,33.75
2017-12-22T17:37:19.158Z,33.75
2017-12-22T17:39:12.279Z,33.75
2017-12-22T17:40:12.244Z,33.75
2017-12-22T17:42:05.703Z,33.75
2017-12-22T17:43:05.411Z,33.75
2017-12-22T17:44:58.567Z,33.75
2017-12-22T17:45:58.523Z,33.75
2017-12-22T17:47:51.957Z,33.75
2017-12-22T17:48:51.949Z,33.75
2017-12-22T17:50:45.138Z,33.75
2017-12-22T17:51:45.104Z,28.13
2017-12-22T17:53:38.569Z,39.38
2017-12-22T17:54:38.309Z,45.00
2017-12-22T17:55:38.320Z,45.00
2017-12-22T17:56:38.316Z,45.00
2017-12-22T17:57:38.324Z,39.38
2017-12-22T17:58:38.307Z,45.00
2017-12-22T17:59:38.339Z,33.75
2017-12-22T18:00:38.338Z,28.13
2017-12-22T18:01:38.315Z,28.13
2017-12-22T18:02:38.328Z,28.13
2017-12-22T18:03:38.382Z,28.13
2017-12-22T18:04:38.348Z,22.50
2017-12-22T18:05:38.321Z,22.50
2017-12-22T18:06:38.327Z,22.50
2017-12-22T18:07:38.326Z,22.50
2017-12-22T18:08:38.350Z,22.50
2017-12-22T18:09:38.350Z,22.50
2017-12-22T18:10:38.316Z,22.50
2017-12-22T18:11:38.330Z,22.50
2017-12-22T18:12:38.360Z,22.50
2017-12-22T18:13:38.347Z,5.63
2017-12-22T18:14:38.352Z,16.88
2017-12-22T18:15:38.320Z,11.25
2017-12-22T18:16:38.338Z,28.13
2017-12-22T18:17:38.333Z,22.50
2017-12-22T18:18:38.317Z,16.88
2017-12-22T18:19:38.326Z,22.50
2017-12-22T18:20:38.332Z,22.50
2017-12-22T18:21:38.334Z,11.25
2017-12-22T18:22:38.315Z,22.50
2017-12-22T18:23:38.307Z,22.50
2017-12-22T18:24:38.318Z,22.50
2017-12-22T18:25:38.321Z,0.00
2017-12-22T18:26:38.306Z,22.50
2017-12-22T18:27:38.332Z,22.50
2017-12-22T18:28:39.232Z,16.88
2017-12-22T18:29:38.310Z,16.88
2017-12-22T18:30:38.300Z,16.88
2017-12-22T18:31:38.326Z,22.50
2017-12-22T18:32:38.315Z,16.88
2017-12-22T18:33:38.315Z,16.88
2017-12-22T18:34:38.311Z,16.88
2017-12-22T18:35:38.295Z,16.88
2017-12-22T18:36:38.295Z,16.88
2017-12-22T18:37:38.291Z,16.88
2017-12-22T18:38:38.315Z,16.88
2017-12-22T18:39:38.285Z,16.88
2017-12-22T18:40:38.276Z,16.88
2017-12-22T18:41:38.310Z,16.88
2017-12-22T18:42:38.283Z,16.88
2017-12-22T18:43:38.284Z,16.88
2017-12-22T18:44:38.270Z,16.88
2017-12-22T18:45:38.266Z,16.88
2017-12-22T18:46:38.281Z,16.88
2017-12-22T18:47:38.291Z,16.88
2017-12-22T18:48:38.285Z,16.88
2017-12-22T18:51:19.074Z,16.88
2017-12-22T18:52:19.068Z,16.88
2017-12-22T18:54:12.994Z,16.88
2017-12-22T18:55:12.496Z,16.88
2017-12-22T18:57:58.596Z,16.88
2017-12-22T18:58:58.552Z,16.88
2017-12-22T18:59:58.562Z,11.25
2017-12-22T19:00:58.562Z,11.25
2017-12-22T19:01:58.554Z,11.25
2017-12-22T19:02:58.547Z,11.25
2017-12-22T19:03:58.542Z,16.88
2017-12-22T19:04:58.548Z,5.63
2017-12-22T19:05:58.568Z,11.25
2017-12-22T19:06:58.595Z,0.00
2017-12-22T19:07:58.533Z,0.00
2017-12-22T19:08:58.547Z,0.00
2017-12-22T19:09:58.546Z,11.25
2017-12-22T19:10:58.543Z,16.88
2017-12-22T19:11:58.558Z,11.25
2017-12-22T19:12:58.521Z,11.25
2017-12-22T19:13:58.526Z,11.25
2017-12-22T19:14:58.548Z,11.25
2017-12-22T19:15:58.506Z,11.25
2017-12-22T19:16:58.523Z,11.25
2017-12-22T19:17:59.166Z,11.25
2017-12-22T19:18:58.502Z,11.25
2017-12-22T19:19:58.503Z,11.25
2017-12-22T19:20:58.530Z,11.25
2017-12-22T19:21:58.524Z,11.25
2017-12-22T19:22:58.500Z,0.00
2017-12-22T19:23:58.490Z,11.25
2017-12-22T19:24:58.500Z,11.25
2017-12-22T19:25:58.468Z,11.25
2017-12-22T19:26:58.477Z,11.25
2017-12-22T19:27:58.505Z,11.25
2017-12-22T19:28:58.470Z,5.63
2017-12-22T19:29:58.474Z,11.25
2017-12-22T19:30:58.481Z,11.25
2017-12-22T19:31:58.463Z,11.25
2017-12-22T19:32:58.446Z,11.25
2017-12-22T19:33:58.461Z,11.25
2017-12-22T19:34:58.448Z,11.25
2017-12-22T19:35:58.456Z,11.25
2017-12-22T19:36:58.439Z,11.25
2017-12-22T19:37:58.433Z,11.25
2017-12-22T19:38:58.442Z,11.25
2017-12-22T19:39:58.444Z,11.25
2017-12-22T19:40:58.434Z,11.25
2017-12-22T19:41:58.438Z,11.25
2017-12-22T19:42:58.426Z,11.25
2017-12-22T19:43:58.442Z,11.25
2017-12-22T19:44:58.418Z,11.25
2017-12-22T19:45:58.424Z,11.25
2017-12-22T19:46:58.433Z,11.25
2017-12-22T19:47:58.396Z,11.25
2017-12-22T19:48:58.417Z,11.25
2017-12-22T19:49:58.394Z,11.25
2017-12-22T19:50:58.409Z,11.25
2017-12-22T19:51:58.397Z,11.25
2017-12-22T19:52:58.409Z,11.25
2017-12-22T19:53:58.400Z,11.25
2017-12-22T19:54:58.355Z,11.25
2017-12-22T19:55:58.393Z,11.25
2017-12-22T19:56:58.364Z,11.25
2017-12-22T19:57:58.358Z,11.25
2017-12-22T19:58:58.384Z,11.25
2017-12-22T19:59:58.347Z,11.25
2017-12-22T20:00:58.361Z,11.25
2017-12-22T20:01:58.329Z,11.25
2017-12-22T20:02:58.333Z,11.25
2017-12-22T20:03:58.383Z,11.25
2017-12-22T20:04:58.352Z,11.25
2017-12-22T20:05:58.324Z,11.25
2017-12-22T20:06:58.338Z,5.63
2017-12-22T20:07:58.307Z,5.63
2017-12-22T20:08:58.314Z,5.63
2017-12-22T20:09:58.296Z,11.25
2017-12-22T20:10:58.304Z,11.25
2017-12-22T20:11:58.304Z,11.25
2017-12-22T20:12:58.311Z,11.25
2017-12-22T20:13:58.301Z,11.25
2017-12-22T20:14:58.290Z,11.25
2017-12-22T20:15:58.260Z,11.25
2017-12-22T20:16:58.269Z,11.25
2017-12-22T20:17:58.278Z,11.25
2017-12-22T20:18:58.255Z,11.25
2017-12-22T20:19:58.236Z,11.25
2017-12-22T20:20:58.230Z,11.25
2017-12-22T20:21:58.218Z,11.25
2017-12-22T20:22:58.225Z,11.25
2017-12-22T20:23:58.226Z,5.63
2017-12-22T20:24:58.216Z,5.63
2017-12-22T20:25:58.238Z,5.63
2017-12-22T20:26:58.203Z,5.63
2017-12-22T20:27:58.200Z,5.63
2017-12-22T20:28:58.212Z,5.63
2017-12-22T20:29:58.181Z,5.63
2017-12-22T20:30:58.198Z,5.63
2017-12-22T20:31:58.173Z,5.63
2017-12-22T20:32:58.166Z,5.63
2017-12-22T20:33:58.152Z,5.63
2017-12-22T20:34:58.154Z,5.63
2017-12-22T20:35:58.159Z,5.63
2017-12-22T20:36:58.132Z,5.63
2017-12-22T20:37:58.141Z,5.63
2017-12-22T20:38:58.141Z,5.63
2017-12-22T20:39:58.121Z,5.63
2017-12-22T20:40:58.124Z,5.63
2017-12-22T20:41:58.098Z,5.63
2017-12-22T20:42:58.101Z,5.63
2017-12-22T20:43:58.094Z,5.63
2017-12-22T20:44:58.068Z,5.63
2017-12-22T20:45:58.063Z,5.63
2017-12-22T20:46:58.085Z,5.63
2017-12-22T20:47:58.069Z,5.63
2017-12-22T20:48:58.042Z,5.63
2017-12-22T20:49:58.057Z,5.63
2017-12-22T20:50:58.071Z,5.63
2017-12-22T20:51:58.041Z,5.63
2017-12-22T20:52:57.997Z,5.63
2017-12-22T20:53:58.012Z,5.63
2017-12-22T20:54:58.013Z,5.63
2017-12-22T20:55:58.008Z,5.63
2017-12-22T20:56:58.652Z,5.63
2017-12-22T20:57:57.963Z,5.63
2017-12-22T20:58:57.979Z,5.63
2017-12-22T20:59:57.935Z,5.63
2017-12-22T21:00:57.986Z,5.63
2017-12-22T21:01:57.947Z,5.63
2017-12-22T21:02:57.905Z,5.63
2017-12-22T21:03:57.914Z,5.63
2017-12-22T21:04:57.903Z,5.63
2017-12-22T21:05:57.894Z,5.63
2017-12-22T21:06:57.871Z,5.63
2017-12-22T21:07:57.875Z,5.63
2017-12-22T21:08:57.856Z,5.63
2017-12-22T21:09:57.836Z,5.63
2017-12-22T21:10:57.827Z,5.63
2017-12-22T21:11:57.814Z,5.63
2017-12-22T21:12:57.831Z,5.63
2017-12-22T21:13:57.803Z,5.63
2017-12-22T21:14:57.812Z,5.63
2017-12-22T21:15:57.813Z,5.63
2017-12-22T21:16:57.780Z,5.63
2017-12-22T21:17:57.782Z,5.63
2017-12-22T21:18:57.766Z,5.63
2017-12-22T21:19:57.752Z,5.63
2017-12-22T21:20:57.715Z,5.63
2017-12-22T21:21:57.720Z,5.63
2017-12-22T21:22:57.732Z,5.63
2017-12-22T21:23:57.699Z,5.63
2017-12-22T21:24:57.695Z,5.63
2017-12-22T21:25:57.718Z,5.63
2017-12-22T21:26:57.685Z,5.63
2017-12-22T21:27:57.664Z,5.63
2017-12-22T21:28:57.655Z,5.63
2017-12-22T21:29:57.636Z,5.63
2017-12-22T21:30:57.595Z,5.63
2017-12-22T21:31:57.601Z,5.63
2017-12-22T21:32:57.601Z,5.63
2017-12-22T21:33:57.555Z,5.63
2017-12-22T21:34:57.553Z,5.63
2017-12-22T21:35:57.549Z,5.63
2017-12-22T21:36:57.531Z,5.63
2017-12-22T21:37:57.530Z,5.63
2017-12-22T21:38:57.516Z,5.63
2017-12-22T21:39:58.131Z,5.63
2017-12-22T21:40:57.490Z,5.63
2017-12-22T21:41:57.472Z,0.00
2017-12-22T21:42:57.505Z,0.00
2017-12-22T21:43:57.450Z,0.00
